METAR - Iceland

Last updated 27.11.2020 - at. 06:30

SIGMET for the last six hours

No SIGMET messages last 6 hours.

METAR from the last three hours

AerodromeTimeMessage
BIAR2020-11-27 05.00METAR BIAR 270500Z 19021G39KT 170V250 9999 FEW043 SCT050 04/M06 Q0986
BIAR2020-11-27 04.00METAR BIAR 270400Z 20024G40KT 170V230 7000 -SN BR FEW053 03/M06 Q0985
BIEG2020-11-27 06.00METAR BIEG 270600Z 21026KT 9999 FEW030 03/M04 Q0992
BIEG2020-11-27 05.00METAR BIEG 270500Z 21020KT 9999 FEW030 02/M02 Q0991
BIEG2020-11-27 04.00METAR BIEG 270400Z 20028G39KT CAVOK 04/M05 Q0990
BIKF2020-11-27 06.00METAR BIKF 270600Z 23025G37KT 9000 -SHGS FEW010 SCT020CB BKN030 02/M02 Q0988
BIKF2020-11-27 05.30METAR BIKF 270530Z 22030G43KT 9999 VCSH FEW010 SCT020CB BKN027 02/M02 Q0987
BIKF2020-11-27 05.00METAR BIKF 270500Z 23029G40KT 9999 VCSH FEW010 SCT020CB BKN330 03/M03 Q0986
BIKF2020-11-27 04.30METAR BIKF 270430Z 23031G43KT 9999 VCSH FEW009 SCT015CB BKN028 03/M02 Q0986
BIKF2020-11-27 04.00METAR BIKF 270400Z 22030G45KT 9999 -SHGS FEW009 SCT017CB BKN032 01/M00 Q0987
BIRK2020-11-27 06.00METAR BIRK 270600Z 21024KT 9999 VCSH FEW014CB BKN030 02/M02 Q0988
BIRK2020-11-27 05.22SPECI BIRK 270522Z 21019KT 4000 -SHSN BKN023CB 02/M00 Q0988
BIRK2020-11-27 05.00METAR BIRK 270500Z 22019KT 9999 VCSH FEW020CB BKN033 02/M01 Q0988
BIRK2020-11-27 04.00METAR BIRK 270400Z 21027KT 9999 VCSH SCT032CB BKN039 03/M04 Q0987
BIVM2020-11-27 06.24METAR BIVM 270624Z 24036G52KT 8000 FEW036 03/M01 Q0993





Other related web sites


This website is built with Eplica CMS